Terminal Aerodrome Forecast
Issued by NWS

Home | Current Version | Previous Version | Text Only | Print | Product List | Glossary On
Versions: 1 2 3 4 5 6 7 8 9 10 11 12 13 14 15 16 17 18
000
FTUS45 KMSO 220803 AAA
TAFSMN
TAF AMD
KSMN 220803Z 2208/2306 VRB05KT 1SM BR SCT005
      TEMPO 2208/2210 1/2SM FG
     FM221000 00000KT 1/2SM FG BKN005
     FM221300 VRB03KT P6SM BKN010
     FM221500 VRB04KT P6SM SCT100
      AMD LTD TO CLD VIS AND WIND=

USA.gov is the U.S. government's official web portal to all federal, state and local government web resources and services.